createdAt,value
2018-02-08T00:00:10.406Z,65.3
2018-02-08T00:05:03.445Z,65.3
2018-02-08T00:10:08.718Z,65.5
2018-02-08T00:15:02.981Z,65.4
2018-02-08T00:20:02.698Z,65.8
2018-02-08T00:25:05.718Z,66.4
2018-02-08T00:30:21.005Z,66.3
2018-02-08T00:35:02.823Z,66.3
2018-02-08T00:40:02.845Z,66.6
2018-02-08T00:45:05.934Z,66.7
2018-02-08T00:50:06.020Z,66.8
2018-02-08T00:55:03.074Z,66.8
2018-02-08T01:00:03.600Z,66.7
2018-02-08T01:05:05.692Z,67.9
2018-02-08T01:10:02.692Z,67.8
2018-02-08T01:15:05.815Z,68.1
2018-02-08T01:20:03.499Z,68.1
2018-02-08T01:25:05.619Z,69
2018-02-08T01:30:03.199Z,69
2018-02-08T01:35:05.342Z,69
2018-02-08T01:40:08.495Z,68.9
2018-02-08T01:45:15.565Z,68.9
2018-02-08T01:50:03.122Z,68.9
2018-02-08T01:55:03.654Z,69.6
2018-02-08T02:00:08.250Z,69.6
2018-02-08T02:05:02.753Z,69.6
2018-02-08T02:10:05.458Z,69.9
2018-02-08T02:15:08.413Z,69.7
2018-02-08T02:20:10.650Z,70
2018-02-08T02:25:06.062Z,70.4
2018-02-08T02:30:03.704Z,70.4
2018-02-08T02:35:05.668Z,70.9
2018-02-08T02:40:28.056Z,71.2
2018-02-08T02:45:25.458Z,71.3
2018-02-08T02:50:08.075Z,71.1
2018-02-08T02:55:06.124Z,70.8
2018-02-08T03:00:10.287Z,71.1
2018-02-08T03:05:03.229Z,71.1
2018-02-08T03:10:03.246Z,71.2
2018-02-08T03:15:07.797Z,70.9
2018-02-08T03:20:03.414Z,70.9
2018-02-08T03:25:03.019Z,70.8
2018-02-08T03:30:03.671Z,70.7
2018-02-08T03:35:08.250Z,71.1
2018-02-08T03:40:05.806Z,71.2
2018-02-08T03:45:02.775Z,71.2
2018-02-08T03:50:03.330Z,71.4
2018-02-08T03:55:02.948Z,71.4
2018-02-08T04:00:02.670Z,71.7
2018-02-08T04:05:25.978Z,72
2018-02-08T04:10:05.539Z,72.2
2018-02-08T04:15:03.492Z,72.2
2018-02-08T04:20:02.940Z,72.1
2018-02-08T04:25:03.203Z,72.1
2018-02-08T04:30:06.017Z,72.6
2018-02-08T04:35:07.767Z,72.7
2018-02-08T04:40:03.490Z,72.6
2018-02-08T04:45:02.647Z,72.7
2018-02-08T04:50:02.911Z,72.6
2018-02-08T04:55:08.292Z,73
2018-02-08T05:00:13.699Z,73.1
2018-02-08T05:05:02.841Z,73.1
2018-02-08T05:10:05.167Z,73.3
2018-02-08T05:15:02.929Z,73.2
2018-02-08T05:20:03.270Z,73.4
2018-02-08T05:25:08.597Z,60.6
2018-02-08T05:30:05.444Z,73.6
2018-02-08T05:35:10.711Z,73.9
2018-02-08T05:40:05.964Z,74.9
2018-02-08T05:45:17.778Z,74.8
2018-02-08T05:50:05.648Z,74.5
2018-02-08T05:55:05.770Z,74.3
2018-02-08T06:00:08.134Z,74.2
2018-02-08T06:05:03.256Z,74.2
2018-02-08T06:10:02.947Z,74.1
2018-02-08T06:15:18.348Z,73
2018-02-08T06:20:07.737Z,72.8
2018-02-08T06:25:07.967Z,72.7
2018-02-08T06:30:08.310Z,72.7
2018-02-08T06:35:31.273Z,72.8
2018-02-08T06:40:08.039Z,72.7
2018-02-08T06:45:03.220Z,72.7
2018-02-08T06:50:11.116Z,72.7
2018-02-08T06:55:10.212Z,72.1
2018-02-08T07:00:03.475Z,72.1
2018-02-08T07:05:05.191Z,72.5
2018-02-08T07:10:02.941Z,72.5
2018-02-08T07:15:10.689Z,72.5
2018-02-08T07:20:05.529Z,72.5
2018-02-08T07:25:10.873Z,72.6
2018-02-08T07:30:03.182Z,72.5
2018-02-08T07:35:11.015Z,72.8
2018-02-08T07:40:02.739Z,72.8
2018-02-08T07:45:10.557Z,73
2018-02-08T07:50:07.902Z,73.3
2018-02-08T07:55:08.076Z,73.9
2018-02-08T08:00:10.912Z,73.7
2018-02-08T08:05:06.061Z,73.8
2018-02-08T08:10:02.782Z,73.8
2018-02-08T08:15:05.519Z,73
2018-02-08T08:20:07.903Z,72.9
2018-02-08T08:25:08.170Z,72.8
2018-02-08T08:30:13.945Z,72.3
2018-02-08T08:35:10.230Z,72
2018-02-08T08:40:10.571Z,71.5
2018-02-08T08:45:10.799Z,71.6
2018-02-08T08:50:05.650Z,71.3
2018-02-08T08:55:03.295Z,71.3
2018-02-08T09:00:03.628Z,71.4
2018-02-08T09:05:05.284Z,70.4
2018-02-08T09:10:08.094Z,70.1
2018-02-08T09:15:20.975Z,69.4
2018-02-08T09:20:05.891Z,68.8
2018-02-08T09:25:06.094Z,68.4
2018-02-08T09:30:03.375Z,68.3
2018-02-08T09:35:02.683Z,68
2018-02-08T09:40:06.055Z,67.4
2018-02-08T09:45:02.627Z,67.4
2018-02-08T09:50:02.936Z,67.1
2018-02-08T09:55:05.628Z,67.2
2018-02-08T10:00:02.914Z,67.2
2018-02-08T10:05:10.782Z,66
2018-02-08T10:10:05.996Z,65.7
2018-02-08T10:15:07.782Z,64.6
2018-02-08T10:20:05.701Z,64.8
2018-02-08T10:25:08.601Z,63.5
2018-02-08T10:30:05.349Z,62.6
2018-02-08T10:35:03.087Z,62.5
2018-02-08T10:40:05.509Z,61
2018-02-08T10:45:05.608Z,60.5
2018-02-08T10:50:07.971Z,59.4
2018-02-08T10:55:03.157Z,59.4
2018-02-08T11:00:03.438Z,58.3
2018-02-08T11:05:07.764Z,57.3
2018-02-08T11:10:08.604Z,56.9
2018-02-08T11:15:02.785Z,56.9
2018-02-08T11:20:05.683Z,55.4
2018-02-08T11:25:05.938Z,53.8
2018-02-08T11:30:03.253Z,53.8
2018-02-08T11:35:03.462Z,52.8
2018-02-08T11:40:03.270Z,52.5
2018-02-08T11:45:05.961Z,50.5
2018-02-08T11:50:05.769Z,49.5
2018-02-08T11:55:03.531Z,49.4
2018-02-08T12:00:02.959Z,49.8
2018-02-08T12:05:18.300Z,48.9
2018-02-08T12:10:03.022Z,48.9
2018-02-08T12:15:10.896Z,47.5
2018-02-08T12:20:05.844Z,47.7
2018-02-08T12:25:12.739Z,45.7
2018-02-08T12:30:03.088Z,45.7
2018-02-08T12:35:03.364Z,46.4
2018-02-08T12:40:05.757Z,45.5
2018-02-08T12:45:03.419Z,45.5
2018-02-08T12:50:07.798Z,46.5
2018-02-08T12:55:02.948Z,46.5
2018-02-08T13:00:05.792Z,45.6
2018-02-08T13:05:03.505Z,45.6
2018-02-08T13:10:08.337Z,45.7
2018-02-08T13:15:08.580Z,45
2018-02-08T13:20:02.895Z,45
2018-02-08T13:25:08.235Z,44.1
2018-02-08T13:30:06.033Z,43.8
2018-02-08T13:35:07.886Z,43.6
2018-02-08T13:40:10.432Z,42.5
2018-02-08T13:45:02.926Z,42.5
2018-02-08T13:50:05.793Z,42.2
2018-02-08T13:55:05.160Z,41.9
2018-02-08T14:00:06.032Z,41.6
2018-02-08T14:05:07.798Z,40.9
2018-02-08T14:10:06.100Z,41.1
2018-02-08T14:15:12.959Z,41.5
2018-02-08T14:20:06.069Z,40.4
2018-02-08T14:25:02.718Z,40.4
2018-02-08T14:30:05.598Z,40.8
2018-02-08T14:35:18.520Z,41.1
2018-02-08T14:40:05.807Z,41.2
2018-02-08T14:45:07.686Z,41.7
2018-02-08T14:50:02.954Z,41.8
2018-02-08T14:55:05.813Z,42
2018-02-08T15:00:05.666Z,42.6
2018-02-08T15:05:05.957Z,42.6
2018-02-08T15:10:12.929Z,43.2
2018-02-08T15:15:03.042Z,43.2
2018-02-08T15:20:11.046Z,43.5
2018-02-08T15:25:05.315Z,43.9
2018-02-08T15:30:02.626Z,43.9
2018-02-08T15:35:05.443Z,45
2018-02-08T15:40:03.219Z,44.9
2018-02-08T15:45:08.595Z,46
2018-02-08T15:50:05.436Z,46.6
2018-02-08T15:55:13.273Z,47.6
2018-02-08T16:00:02.622Z,47.6
2018-02-08T16:05:05.375Z,48.5
2018-02-08T16:10:03.144Z,48.5
2018-02-08T16:15:03.433Z,49.2
2018-02-08T16:20:05.406Z,50.2
2018-02-08T16:25:05.703Z,50.6
2018-02-08T16:30:08.106Z,51
2018-02-08T16:35:13.351Z,51.3
2018-02-08T16:40:03.063Z,51.3
2018-02-08T16:45:03.372Z,51.5
2018-02-08T16:50:02.656Z,52.2
2018-02-08T16:55:02.915Z,52.8
2018-02-08T17:00:03.159Z,53.2
2018-02-08T17:05:03.426Z,53.4
2018-02-08T17:10:03.207Z,53.5
2018-02-08T17:15:03.465Z,53.6
2018-02-08T17:20:02.848Z,53.7
2018-02-08T17:25:03.208Z,54
2018-02-08T17:30:03.625Z,54.3
2018-02-08T17:35:02.730Z,54.6
2018-02-08T17:40:03.472Z,55.2
2018-02-08T17:45:02.731Z,55.6
2018-02-08T17:50:08.140Z,56.7
2018-02-08T17:55:08.384Z,57.1
2018-02-08T18:00:02.744Z,57.1
2018-02-08T18:05:05.470Z,57.5
2018-02-08T18:10:05.807Z,58
2018-02-08T18:15:07.780Z,58.6
2018-02-08T18:20:03.182Z,58.6
2018-02-08T18:25:05.991Z,59
2018-02-08T18:30:05.837Z,59.6
2018-02-08T18:35:06.117Z,59.7
2018-02-08T18:40:07.991Z,59.9
2018-02-08T18:45:05.695Z,60.3
2018-02-08T18:50:02.924Z,60.3
2018-02-08T18:55:10.836Z,61
2018-02-08T19:00:03.099Z,61
2018-02-08T19:05:13.567Z,61.3
2018-02-08T19:10:08.368Z,61.3
2018-02-08T19:15:03.559Z,61.3
2018-02-08T19:20:18.079Z,62.2
2018-02-08T19:25:03.122Z,62.2
2018-02-08T19:30:05.979Z,62.5
2018-02-08T19:35:18.748Z,62.8
2018-02-08T19:40:03.522Z,62.7
2018-02-08T19:45:05.326Z,63
2018-02-08T19:50:02.626Z,63
2018-02-08T19:55:07.969Z,63.2
2018-02-08T20:00:03.311Z,63.2
2018-02-08T20:05:08.625Z,63.6
2018-02-08T20:10:05.954Z,64.5
2018-02-08T20:15:02.572Z,64.5
2018-02-08T20:20:05.514Z,64.2
2018-02-08T20:25:10.868Z,64.6
2018-02-08T20:30:03.121Z,64.6
2018-02-08T20:35:05.914Z,64.6
2018-02-08T20:40:10.357Z,64.7
2018-02-08T20:45:05.417Z,64.9
2018-02-08T20:50:27.984Z,64.9
2018-02-08T20:55:05.771Z,65
2018-02-08T21:00:03.041Z,65
2018-02-08T21:05:08.379Z,65.6
2018-02-08T21:10:03.191Z,65.7
2018-02-08T21:15:03.475Z,65.8
2018-02-08T21:20:05.465Z,66.2
2018-02-08T21:25:08.257Z,66.9
2018-02-08T21:30:07.647Z,67.1
2018-02-08T21:35:02.859Z,67.1
2018-02-08T21:40:20.282Z,67
2018-02-08T21:45:15.454Z,67
2018-02-08T21:50:05.264Z,67.2
2018-02-08T21:55:05.463Z,67.4
2018-02-08T22:00:05.331Z,67.8
2018-02-08T22:05:10.564Z,68
2018-02-08T22:10:08.434Z,67.7
2018-02-08T22:15:15.197Z,67.6
2018-02-08T22:20:08.639Z,68.1
2018-02-08T22:25:10.346Z,68
2018-02-08T22:30:02.620Z,68
2018-02-08T22:35:05.416Z,68.2
2018-02-08T22:40:08.191Z,68.7
2018-02-08T22:45:08.542Z,68.7
2018-02-08T22:50:02.865Z,68.7
2018-02-08T22:55:05.504Z,68.5
2018-02-08T23:00:02.928Z,68.5
2018-02-08T23:05:08.061Z,68.6
2018-02-08T23:10:02.904Z,68.6
2018-02-08T23:15:18.258Z,68.6
2018-02-08T23:20:05.170Z,68.7
2018-02-08T23:25:07.939Z,69
2018-02-08T23:30:03.224Z,69
2018-02-08T23:35:13.548Z,68.9
2018-02-08T23:40:10.858Z,68.7
2018-02-08T23:45:10.260Z,69
2018-02-08T23:50:03.547Z,69
2018-02-08T23:55:07.956Z,69.2
